Lyons, Wisconsin
Current Conditions -  °F | °C
As of 10:15 AM on Monday 24 Nov 2014 (Local Time) from KBUU Reporting Station
Unknown Precip Unknown Precip  
Wind Chill: 31°   Ceiling: 900
Heat Index: 38°   Visibility: 2mi
Dew Point: 37°   Wind: 12mph
Humidity: 97%   Direction: 270°W
Pressure: 29.16"   Gusts: 18mph
Location:  42.65°N, 88.36°W
Report Text: KBUU 241615Z AUTO 27010G16KT 2SM UP BKN009 BKN019 OVC026 04/03 A2916 RMK AO2 T00350030
Loading
Personal Weather Stations






























Interactive Weather Map New forecast layout! Learn more

10-Day Weather Forecast

Advertisements
Track Severe Weather on mobile